Starksboro, Vermont
Current Conditions -  °F | °C
As of 12:54 PM on Thursday 29 Jan 2015 (Local Time) from KBTV Reporting Station
Broken Clouds Broken Clouds  
Wind Chill: -10°   Ceiling: 20000
Heat Index: -3°   Visibility: 10mi
Dew Point: -18°   Wind: 16mph
Humidity: 30%   Direction: 180°S
Pressure: 30.09"   Gusts: 24mph
Location:  44.23°N, 73.06°W
Report Text: KBTV 291754Z 18014G21KT 10SM FEW090 BKN200 M03/M18 A3009 RMK AO2 SLP197 ACSL S 4/003 T10281183 11028 21194 58051
Loading
Personal Weather Stations






























Interactive Weather Map New forecast layout! Learn more

10-Day Weather Forecast

Advertisements
Track Severe Weather on mobile